sensor_id;sensor_type;location;lat;lon;timestamp;temperature;humidity
3330;DHT22;1677;49.576;10.990;2022-10-16T00:01:19;17.50;99.90
3330;DHT22;1677;49.576;10.990;2022-10-16T00:03:46;17.60;99.90
3330;DHT22;1677;49.576;10.990;2022-10-16T00:06:12;17.80;99.90
3330;DHT22;1677;49.576;10.990;2022-10-16T00:08:38;17.90;99.90
3330;DHT22;1677;49.576;10.990;2022-10-16T00:11:07;17.70;99.90
3330;DHT22;1677;49.576;10.990;2022-10-16T00:13:34;17.50;99.90
3330;DHT22;1677;49.576;10.990;2022-10-16T00:16:00;17.20;99.90
3330;DHT22;1677;49.576;10.990;2022-10-16T00:18:27;17.10;99.90
3330;DHT22;1677;49.576;10.990;2022-10-16T00:20:53;16.80;99.90
3330;DHT22;1677;49.576;10.990;2022-10-16T00:23:19;16.80;99.90
3330;DHT22;1677;49.576;10.990;2022-10-16T00:25:53;16.80;99.90
3330;DHT22;1677;49.576;10.990;2022-10-16T00:28:19;16.70;99.90
3330;DHT22;1677;49.576;10.990;2022-10-16T00:30:45;16.50;99.90
3330;DHT22;1677;49.576;10.990;2022-10-16T00:33:10;16.40;99.90
3330;DHT22;1677;49.576;10.990;2022-10-16T00:35:36;16.30;99.90
3330;DHT22;1677;49.576;10.990;2022-10-16T00:38:01;16.20;99.90
3330;DHT22;1677;49.576;10.990;2022-10-16T00:40:27;16.10;99.90
3330;DHT22;1677;49.576;10.990;2022-10-16T00:42:53;16.10;99.90
3330;DHT22;1677;49.576;10.990;2022-10-16T00:45:19;16.10;99.90
3330;DHT22;1677;49.576;10.990;2022-10-16T00:47:45;16.20;99.90
3330;DHT22;1677;49.576;10.990;2022-10-16T00:50:22;16.20;99.90
3330;DHT22;1677;49.576;10.990;2022-10-16T00:52:50;16.30;99.90
3330;DHT22;1677;49.576;10.990;2022-10-16T00:55:17;16.50;99.90
3330;DHT22;1677;49.576;10.990;2022-10-16T00:57:43;16.80;99.90
3330;DHT22;1677;49.576;10.990;2022-10-16T01:00:12;17.00;99.90
3330;DHT22;1677;49.576;10.990;2022-10-16T01:02:38;17.10;99.90
3330;DHT22;1677;49.576;10.990;2022-10-16T01:05:04;17.10;99.90
3330;DHT22;1677;49.576;10.990;2022-10-16T01:07:56;17.10;99.90
3330;DHT22;1677;49.576;10.990;2022-10-16T01:10:42;17.10;99.90
3330;DHT22;1677;49.576;10.990;2022-10-16T01:15:50;17.10;99.90
3330;DHT22;1677;49.576;10.990;2022-10-16T01:18:38;16.90;99.90
3330;DHT22;1677;49.576;10.990;2022-10-16T01:21:10;16.60;99.90
3330;DHT22;1677;49.576;10.990;2022-10-16T01:29:07;16.40;99.90
3330;DHT22;1677;49.576;10.990;2022-10-16T01:31:36;16.20;99.90
3330;DHT22;1677;49.576;10.990;2022-10-16T01:34:09;16.10;99.90
3330;DHT22;1677;49.576;10.990;2022-10-16T01:36:51;16.10;99.90
3330;DHT22;1677;49.576;10.990;2022-10-16T01:39:21;16.00;99.90
3330;DHT22;1677;49.576;10.990;2022-10-16T01:41:54;16.00;99.90
3330;DHT22;1677;49.576;10.990;2022-10-16T01:44:25;15.90;99.90
3330;DHT22;1677;49.576;10.990;2022-10-16T01:46:54;15.80;99.90
3330;DHT22;1677;49.576;10.990;2022-10-16T01:49:22;15.80;99.90
3330;DHT22;1677;49.576;10.990;2022-10-16T01:51:52;15.90;99.90
3330;DHT22;1677;49.576;10.990;2022-10-16T01:54:20;16.00;99.90
3330;DHT22;1677;49.576;10.990;2022-10-16T01:56:48;16.10;99.90
3330;DHT22;1677;49.576;10.990;2022-10-16T01:59:18;16.30;99.90
3330;DHT22;1677;49.576;10.990;2022-10-16T02:01:48;16.50;99.90
3330;DHT22;1677;49.576;10.990;2022-10-16T02:04:19;16.70;99.90
3330;DHT22;1677;49.576;10.990;2022-10-16T02:06:46;16.90;99.90
3330;DHT22;1677;49.576;10.990;2022-10-16T02:09:12;17.20;99.90
3330;DHT22;1677;49.576;10.990;2022-10-16T02:11:38;17.30;99.90
3330;DHT22;1677;49.576;10.990;2022-10-16T02:14:06;17.20;99.90
3330;DHT22;1677;49.576;10.990;2022-10-16T02:16:44;17.00;99.90
3330;DHT22;1677;49.576;10.990;2022-10-16T02:19:14;16.80;99.90
3330;DHT22;1677;49.576;10.990;2022-10-16T02:21:51;16.70;99.90
3330;DHT22;1677;49.576;10.990;2022-10-16T02:30:02;16.50;99.90
3330;DHT22;1677;49.576;10.990;2022-10-16T02:32:33;16.50;99.90
3330;DHT22;1677;49.576;10.990;2022-10-16T02:35:00;16.40;99.90
3330;DHT22;1677;49.576;10.990;2022-10-16T02:37:27;16.20;99.90
3330;DHT22;1677;49.576;10.990;2022-10-16T02:39:55;16.10;99.90
3330;DHT22;1677;49.576;10.990;2022-10-16T02:42:21;16.10;99.90
3330;DHT22;1677;49.576;10.990;2022-10-16T02:44:52;16.00;99.90
3330;DHT22;1677;49.576;10.990;2022-10-16T02:47:18;16.00;99.90
3330;DHT22;1677;49.576;10.990;2022-10-16T02:49:43;15.90;99.90
3330;DHT22;1677;49.576;10.990;2022-10-16T02:52:09;15.90;99.90
3330;DHT22;1677;49.576;10.990;2022-10-16T02:54:34;15.90;99.90
3330;DHT22;1677;49.576;10.990;2022-10-16T02:57:00;16.00;99.90
3330;DHT22;1677;49.576;10.990;2022-10-16T02:59:26;16.10;99.90
3330;DHT22;1677;49.576;10.990;2022-10-16T03:01:51;16.20;99.90
3330;DHT22;1677;49.576;10.990;2022-10-16T03:04:17;16.60;99.90
3330;DHT22;1677;49.576;10.990;2022-10-16T03:06:42;16.80;99.90
3330;DHT22;1677;49.576;10.990;2022-10-16T03:09:08;17.00;99.90
3330;DHT22;1677;49.576;10.990;2022-10-16T03:11:33;16.90;99.90
3330;DHT22;1677;49.576;10.990;2022-10-16T03:13:59;16.70;99.90
3330;DHT22;1677;49.576;10.990;2022-10-16T03:16:24;16.60;99.90
3330;DHT22;1677;49.576;10.990;2022-10-16T03:18:50;16.40;99.90
3330;DHT22;1677;49.576;10.990;2022-10-16T03:21:16;16.40;99.90
3330;DHT22;1677;49.576;10.990;2022-10-16T03:23:42;16.30;99.90
3330;DHT22;1677;49.576;10.990;2022-10-16T03:26:07;16.10;99.90
3330;DHT22;1677;49.576;10.990;2022-10-16T03:28:33;16.00;99.90
3330;DHT22;1677;49.576;10.990;2022-10-16T03:30:58;16.00;99.90
3330;DHT22;1677;49.576;10.990;2022-10-16T03:33:24;15.90;99.90
3330;DHT22;1677;49.576;10.990;2022-10-16T03:35:53;15.70;99.90
3330;DHT22;1677;49.576;10.990;2022-10-16T03:38:20;15.70;99.90
3330;DHT22;1677;49.576;10.990;2022-10-16T03:40:45;15.60;99.90
3330;DHT22;1677;49.576;10.990;2022-10-16T03:43:11;15.60;99.90
3330;DHT22;1677;49.576;10.990;2022-10-16T03:45:36;15.60;99.90
3330;DHT22;1677;49.576;10.990;2022-10-16T03:48:02;15.60;99.90
3330;DHT22;1677;49.576;10.990;2022-10-16T03:50:28;15.60;99.90
3330;DHT22;1677;49.576;10.990;2022-10-16T03:52:54;15.60;99.90
3330;DHT22;1677;49.576;10.990;2022-10-16T03:55:20;15.70;99.90
3330;DHT22;1677;49.576;10.990;2022-10-16T03:57:45;15.90;99.90
3330;DHT22;1677;49.576;10.990;2022-10-16T04:00:11;16.50;99.90
3330;DHT22;1677;49.576;10.990;2022-10-16T04:02:37;16.80;99.90
3330;DHT22;1677;49.576;10.990;2022-10-16T04:05:04;17.00;99.90
3330;DHT22;1677;49.576;10.990;2022-10-16T04:07:29;17.00;99.90
3330;DHT22;1677;49.576;10.990;2022-10-16T04:09:55;16.80;99.90
3330;DHT22;1677;49.576;10.990;2022-10-16T04:12:22;16.50;99.90
3330;DHT22;1677;49.576;10.990;2022-10-16T04:14:48;16.30;99.90
3330;DHT22;1677;49.576;10.990;2022-10-16T04:17:13;16.10;99.90
3330;DHT22;1677;49.576;10.990;2022-10-16T04:19:39;16.00;99.90
3330;DHT22;1677;49.576;10.990;2022-10-16T04:22:05;15.90;99.90
3330;DHT22;1677;49.576;10.990;2022-10-16T04:24:30;15.80;99.90
3330;DHT22;1677;49.576;10.990;2022-10-16T04:26:56;15.90;99.90
3330;DHT22;1677;49.576;10.990;2022-10-16T04:29:21;15.90;99.90
3330;DHT22;1677;49.576;10.990;2022-10-16T04:31:47;15.80;99.90
3330;DHT22;1677;49.576;10.990;2022-10-16T04:34:13;15.80;99.90
3330;DHT22;1677;49.576;10.990;2022-10-16T04:36:38;15.70;99.90
3330;DHT22;1677;49.576;10.990;2022-10-16T04:39:04;15.80;99.90
3330;DHT22;1677;49.576;10.990;2022-10-16T04:41:29;15.70;99.90
3330;DHT22;1677;49.576;10.990;2022-10-16T04:43:55;15.70;99.90
3330;DHT22;1677;49.576;10.990;2022-10-16T04:46:20;15.60;99.90
3330;DHT22;1677;49.576;10.990;2022-10-16T04:48:46;15.50;99.90
3330;DHT22;1677;49.576;10.990;2022-10-16T04:51:12;15.50;99.90
3330;DHT22;1677;49.576;10.990;2022-10-16T04:53:37;15.50;99.90
3330;DHT22;1677;49.576;10.990;2022-10-16T04:56:03;15.70;99.90
3330;DHT22;1677;49.576;10.990;2022-10-16T04:58:29;15.90;99.90
3330;DHT22;1677;49.576;10.990;2022-10-16T05:00:54;16.10;99.90
3330;DHT22;1677;49.576;10.990;2022-10-16T05:03:20;16.30;99.90
3330;DHT22;1677;49.576;10.990;2022-10-16T05:05:46;16.50;99.90
3330;DHT22;1677;49.576;10.990;2022-10-16T05:08:13;16.50;99.90
3330;DHT22;1677;49.576;10.990;2022-10-16T05:10:41;16.60;99.90
3330;DHT22;1677;49.576;10.990;2022-10-16T05:13:07;16.50;99.90
3330;DHT22;1677;49.576;10.990;2022-10-16T05:15:33;16.30;99.90
3330;DHT22;1677;49.576;10.990;2022-10-16T05:17:58;16.20;99.90
3330;DHT22;1677;49.576;10.990;2022-10-16T05:20:24;16.00;99.90
3330;DHT22;1677;49.576;10.990;2022-10-16T05:22:49;15.90;99.90
3330;DHT22;1677;49.576;10.990;2022-10-16T05:25:15;15.80;99.90
3330;DHT22;1677;49.576;10.990;2022-10-16T05:27:41;15.70;99.90
3330;DHT22;1677;49.576;10.990;2022-10-16T05:30:07;15.70;99.90
3330;DHT22;1677;49.576;10.990;2022-10-16T05:32:33;15.60;99.90
3330;DHT22;1677;49.576;10.990;2022-10-16T05:34:58;15.50;99.90
3330;DHT22;1677;49.576;10.990;2022-10-16T05:37:25;15.40;99.90
3330;DHT22;1677;49.576;10.990;2022-10-16T05:39:52;15.40;99.90
3330;DHT22;1677;49.576;10.990;2022-10-16T05:42:17;15.30;99.90
3330;DHT22;1677;49.576;10.990;2022-10-16T05:44:43;15.40;99.90
3330;DHT22;1677;49.576;10.990;2022-10-16T05:47:09;15.30;99.90
3330;DHT22;1677;49.576;10.990;2022-10-16T05:49:36;15.40;99.90
3330;DHT22;1677;49.576;10.990;2022-10-16T05:52:01;15.40;99.90
3330;DHT22;1677;49.576;10.990;2022-10-16T05:54:27;15.40;99.90
3330;DHT22;1677;49.576;10.990;2022-10-16T05:56:52;15.50;99.90
3330;DHT22;1677;49.576;10.990;2022-10-16T05:59:18;15.90;99.90
3330;DHT22;1677;49.576;10.990;2022-10-16T06:01:44;16.10;99.90
3330;DHT22;1677;49.576;10.990;2022-10-16T06:04:09;16.30;99.90
3330;DHT22;1677;49.576;10.990;2022-10-16T06:06:35;16.50;99.90
3330;DHT22;1677;49.576;10.990;2022-10-16T06:09:02;16.60;99.90
3330;DHT22;1677;49.576;10.990;2022-10-16T06:11:30;16.60;99.90
3330;DHT22;1677;49.576;10.990;2022-10-16T06:13:57;16.60;99.90
3330;DHT22;1677;49.576;10.990;2022-10-16T06:16:24;16.40;99.90
3330;DHT22;1677;49.576;10.990;2022-10-16T06:18:51;16.30;99.90
3330;DHT22;1677;49.576;10.990;2022-10-16T06:21:19;16.30;99.90
3330;DHT22;1677;49.576;10.990;2022-10-16T06:23:46;16.40;99.90
3330;DHT22;1677;49.576;10.990;2022-10-16T06:26:15;16.30;99.90
3330;DHT22;1677;49.576;10.990;2022-10-16T06:28:41;16.20;99.90
3330;DHT22;1677;49.576;10.990;2022-10-16T06:31:07;16.00;99.90
3330;DHT22;1677;49.576;10.990;2022-10-16T06:33:34;15.90;99.90
3330;DHT22;1677;49.576;10.990;2022-10-16T06:36:10;15.90;99.90
3330;DHT22;1677;49.576;10.990;2022-10-16T06:38:36;15.80;99.90
3330;DHT22;1677;49.576;10.990;2022-10-16T06:41:03;16.00;99.90
3330;DHT22;1677;49.576;10.990;2022-10-16T06:43:30;16.00;99.90
3330;DHT22;1677;49.576;10.990;2022-10-16T06:45:58;16.00;99.90
3330;DHT22;1677;49.576;10.990;2022-10-16T06:48:24;15.90;99.90
3330;DHT22;1677;49.576;10.990;2022-10-16T06:50:59;15.80;99.90
3330;DHT22;1677;49.576;10.990;2022-10-16T06:53:27;15.80;99.90
3330;DHT22;1677;49.576;10.990;2022-10-16T06:55:53;15.70;99.90
3330;DHT22;1677;49.576;10.990;2022-10-16T06:58:18;15.80;99.90
3330;DHT22;1677;49.576;10.990;2022-10-16T07:00:44;16.00;99.90
3330;DHT22;1677;49.576;10.990;2022-10-16T07:03:10;16.30;99.90
3330;DHT22;1677;49.576;10.990;2022-10-16T07:05:40;16.70;99.90
3330;DHT22;1677;49.576;10.990;2022-10-16T07:08:05;16.90;99.90
3330;DHT22;1677;49.576;10.990;2022-10-16T07:10:32;17.00;99.90
3330;DHT22;1677;49.576;10.990;2022-10-16T07:12:58;17.00;99.90
3330;DHT22;1677;49.576;10.990;2022-10-16T07:15:25;16.90;99.90
3330;DHT22;1677;49.576;10.990;2022-10-16T07:17:50;16.80;99.90
3330;DHT22;1677;49.576;10.990;2022-10-16T07:20:16;16.70;99.90
3330;DHT22;1677;49.576;10.990;2022-10-16T07:22:41;16.60;99.90
3330;DHT22;1677;49.576;10.990;2022-10-16T07:25:07;16.50;99.90
3330;DHT22;1677;49.576;10.990;2022-10-16T07:27:33;16.60;99.90
3330;DHT22;1677;49.576;10.990;2022-10-16T07:29:59;16.40;99.90
3330;DHT22;1677;49.576;10.990;2022-10-16T07:32:25;16.30;99.90
3330;DHT22;1677;49.576;10.990;2022-10-16T07:34:51;16.30;99.90
3330;DHT22;1677;49.576;10.990;2022-10-16T07:37:17;16.30;99.90
3330;DHT22;1677;49.576;10.990;2022-10-16T07:39:43;16.50;99.90
3330;DHT22;1677;49.576;10.990;2022-10-16T07:42:08;16.40;99.90
3330;DHT22;1677;49.576;10.990;2022-10-16T07:44:34;16.30;99.90
3330;DHT22;1677;49.576;10.990;2022-10-16T07:46:59;16.30;99.90
3330;DHT22;1677;49.576;10.990;2022-10-16T07:49:25;16.30;99.90
3330;DHT22;1677;49.576;10.990;2022-10-16T07:51:51;16.40;99.90
3330;DHT22;1677;49.576;10.990;2022-10-16T07:54:16;16.40;99.90
3330;DHT22;1677;49.576;10.990;2022-10-16T07:56:42;16.40;99.90
3330;DHT22;1677;49.576;10.990;2022-10-16T07:59:07;16.50;99.90
3330;DHT22;1677;49.576;10.990;2022-10-16T08:01:33;16.60;99.90
3330;DHT22;1677;49.576;10.990;2022-10-16T08:03:58;16.80;99.90
3330;DHT22;1677;49.576;10.990;2022-10-16T08:06:24;17.20;99.90
3330;DHT22;1677;49.576;10.990;2022-10-16T08:08:50;17.70;99.90
3330;DHT22;1677;49.576;10.990;2022-10-16T08:11:15;18.00;99.90
3330;DHT22;1677;49.576;10.990;2022-10-16T08:13:41;18.00;99.90
3330;DHT22;1677;49.576;10.990;2022-10-16T08:16:07;18.00;99.90
3330;DHT22;1677;49.576;10.990;2022-10-16T08:18:35;17.90;99.90
3330;DHT22;1677;49.576;10.990;2022-10-16T08:21:02;17.60;99.90
3330;DHT22;1677;49.576;10.990;2022-10-16T08:23:28;17.40;99.90
3330;DHT22;1677;49.576;10.990;2022-10-16T08:25:54;17.30;99.90
3330;DHT22;1677;49.576;10.990;2022-10-16T08:28:21;17.30;99.90
3330;DHT22;1677;49.576;10.990;2022-10-16T08:30:46;17.30;99.90
3330;DHT22;1677;49.576;10.990;2022-10-16T08:33:12;17.30;99.90
3330;DHT22;1677;49.576;10.990;2022-10-16T08:35:38;17.40;99.90
3330;DHT22;1677;49.576;10.990;2022-10-16T08:38:04;17.50;99.90
3330;DHT22;1677;49.576;10.990;2022-10-16T08:40:31;17.70;99.90
3330;DHT22;1677;49.576;10.990;2022-10-16T08:45:58;18.10;99.90
3330;DHT22;1677;49.576;10.990;2022-10-16T08:50:55;18.10;99.90
3330;DHT22;1677;49.576;10.990;2022-10-16T08:53:30;18.10;99.90
3330;DHT22;1677;49.576;10.990;2022-10-16T08:55:56;18.00;99.90
3330;DHT22;1677;49.576;10.990;2022-10-16T08:58:27;17.90;99.90
3330;DHT22;1677;49.576;10.990;2022-10-16T09:00:55;18.00;99.90
3330;DHT22;1677;49.576;10.990;2022-10-16T09:15:07;19.80;99.90
3330;DHT22;1677;49.576;10.990;2022-10-16T09:17:59;19.60;99.90
3330;DHT22;1677;49.576;10.990;2022-10-16T09:21:05;19.40;99.90
3330;DHT22;1677;49.576;10.990;2022-10-16T09:23:28;19.30;99.90
3330;DHT22;1677;49.576;10.990;2022-10-16T09:25:55;19.10;99.90
3330;DHT22;1677;49.576;10.990;2022-10-16T09:28:21;18.80;99.90
3330;DHT22;1677;49.576;10.990;2022-10-16T09:30:47;18.70;99.90
3330;DHT22;1677;49.576;10.990;2022-10-16T09:33:17;18.70;99.90
3330;DHT22;1677;49.576;10.990;2022-10-16T09:35:52;18.40;99.90
3330;DHT22;1677;49.576;10.990;2022-10-16T09:38:31;18.20;99.90
3330;DHT22;1677;49.576;10.990;2022-10-16T09:40:58;18.00;99.90
3330;DHT22;1677;49.576;10.990;2022-10-16T09:46:02;17.90;99.90
3330;DHT22;1677;49.576;10.990;2022-10-16T09:48:37;17.80;99.90
3330;DHT22;1677;49.576;10.990;2022-10-16T09:51:05;17.80;99.90
3330;DHT22;1677;49.576;10.990;2022-10-16T09:53:43;17.80;99.90
3330;DHT22;1677;49.576;10.990;2022-10-16T09:56:24;18.00;99.90
3330;DHT22;1677;49.576;10.990;2022-10-16T09:58:51;18.00;99.90
3330;DHT22;1677;49.576;10.990;2022-10-16T10:01:18;18.20;99.90
3330;DHT22;1677;49.576;10.990;2022-10-16T10:03:44;18.30;99.90
3330;DHT22;1677;49.576;10.990;2022-10-16T10:09:37;18.80;99.90
3330;DHT22;1677;49.576;10.990;2022-10-16T10:11:58;19.20;99.90
3330;DHT22;1677;49.576;10.990;2022-10-16T10:14:39;19.40;99.90
3330;DHT22;1677;49.576;10.990;2022-10-16T10:19:50;19.20;99.90
3330;DHT22;1677;49.576;10.990;2022-10-16T10:22:45;19.10;99.90
3330;DHT22;1677;49.576;10.990;2022-10-16T10:30:25;19.20;99.90
3330;DHT22;1677;49.576;10.990;2022-10-16T10:46:05;18.70;99.90
3330;DHT22;1677;49.576;10.990;2022-10-16T10:49:01;18.60;99.90
3330;DHT22;1677;49.576;10.990;2022-10-16T10:51:58;18.70;99.90
3330;DHT22;1677;49.576;10.990;2022-10-16T11:05:54;19.70;99.90
3330;DHT22;1677;49.576;10.990;2022-10-16T11:11:22;20.20;99.90
3330;DHT22;1677;49.576;10.990;2022-10-16T11:13:58;20.10;99.90
3330;DHT22;1677;49.576;10.990;2022-10-16T11:16:42;20.10;99.90
3330;DHT22;1677;49.576;10.990;2022-10-16T11:19:19;20.00;99.90
3330;DHT22;1677;49.576;10.990;2022-10-16T11:21:51;19.90;99.90
3330;DHT22;1677;49.576;10.990;2022-10-16T11:24:23;20.00;99.90
3330;DHT22;1677;49.576;10.990;2022-10-16T11:26:53;20.10;99.90
3330;DHT22;1677;49.576;10.990;2022-10-16T11:29:29;20.50;99.90
3330;DHT22;1677;49.576;10.990;2022-10-16T11:32:05;20.90;99.90
3330;DHT22;1677;49.576;10.990;2022-10-16T11:34:36;21.10;99.90
3330;DHT22;1677;49.576;10.990;2022-10-16T11:37:31;21.40;99.90
3330;DHT22;1677;49.576;10.990;2022-10-16T11:40:09;22.00;99.90
3330;DHT22;1677;49.576;10.990;2022-10-16T11:42:49;22.50;99.90
3330;DHT22;1677;49.576;10.990;2022-10-16T11:45:33;22.50;99.90
3330;DHT22;1677;49.576;10.990;2022-10-16T11:51:02;22.90;99.90
3330;DHT22;1677;49.576;10.990;2022-10-16T11:53:45;22.90;99.90
3330;DHT22;1677;49.576;10.990;2022-10-16T11:56:18;23.10;99.90
3330;DHT22;1677;49.576;10.990;2022-10-16T11:59:03;24.30;99.90
3330;DHT22;1677;49.576;10.990;2022-10-16T12:09:30;25.50;99.90
3330;DHT22;1677;49.576;10.990;2022-10-16T12:11:57;26.20;99.90
3330;DHT22;1677;49.576;10.990;2022-10-16T12:14:37;26.60;99.90
3330;DHT22;1677;49.576;10.990;2022-10-16T12:17:24;27.30;99.90
3330;DHT22;1677;49.576;10.990;2022-10-16T12:22:57;28.90;99.90
3330;DHT22;1677;49.576;10.990;2022-10-16T12:25:39;29.70;99.40
3330;DHT22;1677;49.576;10.990;2022-10-16T12:28:31;30.20;98.60
3330;DHT22;1677;49.576;10.990;2022-10-16T12:30:58;30.20;96.20
3330;DHT22;1677;49.576;10.990;2022-10-16T12:33:33;30.40;98.80
3330;DHT22;1677;49.576;10.990;2022-10-16T12:36:02;30.00;95.70
3330;DHT22;1677;49.576;10.990;2022-10-16T12:41:12;30.10;98.30
3330;DHT22;1677;49.576;10.990;2022-10-16T12:43:49;30.70;96.80
3330;DHT22;1677;49.576;10.990;2022-10-16T12:48:42;30.70;92.70
3330;DHT22;1677;49.576;10.990;2022-10-16T12:54:12;30.90;94.80
3330;DHT22;1677;49.576;10.990;2022-10-16T12:57:19;30.80;94.00
3330;DHT22;1677;49.576;10.990;2022-10-16T13:00:13;30.00;94.90
3330;DHT22;1677;49.576;10.990;2022-10-16T13:02:53;28.60;96.30
3330;DHT22;1677;49.576;10.990;2022-10-16T13:14:04;25.70;99.90
3330;DHT22;1677;49.576;10.990;2022-10-16T13:17:00;25.30;99.90
3330;DHT22;1677;49.576;10.990;2022-10-16T13:25:17;24.90;99.90
3330;DHT22;1677;49.576;10.990;2022-10-16T13:27:53;24.80;99.90
3330;DHT22;1677;49.576;10.990;2022-10-16T13:30:30;24.70;99.90
3330;DHT22;1677;49.576;10.990;2022-10-16T13:33:01;24.60;99.90
3330;DHT22;1677;49.576;10.990;2022-10-16T13:35:33;24.60;99.90
3330;DHT22;1677;49.576;10.990;2022-10-16T13:38:15;24.50;99.90
3330;DHT22;1677;49.576;10.990;2022-10-16T13:43:22;23.90;99.90
3330;DHT22;1677;49.576;10.990;2022-10-16T13:46:04;23.70;99.90
3330;DHT22;1677;49.576;10.990;2022-10-16T13:48:31;23.70;99.90
3330;DHT22;1677;49.576;10.990;2022-10-16T13:53:35;24.00;99.90
3330;DHT22;1677;49.576;10.990;2022-10-16T13:56:07;23.90;99.90
3330;DHT22;1677;49.576;10.990;2022-10-16T13:58:33;23.70;99.90
3330;DHT22;1677;49.576;10.990;2022-10-16T14:01:01;23.50;99.90
3330;DHT22;1677;49.576;10.990;2022-10-16T14:03:28;23.60;99.90
3330;DHT22;1677;49.576;10.990;2022-10-16T14:06:00;23.40;99.90
3330;DHT22;1677;49.576;10.990;2022-10-16T14:08:27;23.30;99.90
3330;DHT22;1677;49.576;10.990;2022-10-16T14:11:01;23.10;99.90
3330;DHT22;1677;49.576;10.990;2022-10-16T14:13:34;22.90;99.90
3330;DHT22;1677;49.576;10.990;2022-10-16T14:16:07;22.80;99.90
3330;DHT22;1677;49.576;10.990;2022-10-16T14:18:33;22.50;99.90
3330;DHT22;1677;49.576;10.990;2022-10-16T14:21:07;22.30;99.90
3330;DHT22;1677;49.576;10.990;2022-10-16T14:23:38;22.10;99.90
3330;DHT22;1677;49.576;10.990;2022-10-16T14:28:37;21.90;99.90
3330;DHT22;1677;49.576;10.990;2022-10-16T14:33:46;21.70;99.90
3330;DHT22;1677;49.576;10.990;2022-10-16T14:36:15;21.70;99.90
3330;DHT22;1677;49.576;10.990;2022-10-16T14:41:21;21.80;99.90
3330;DHT22;1677;49.576;10.990;2022-10-16T14:43:51;22.00;99.90
3330;DHT22;1677;49.576;10.990;2022-10-16T14:46:22;22.30;99.90
3330;DHT22;1677;49.576;10.990;2022-10-16T14:48:59;22.50;99.90
3330;DHT22;1677;49.576;10.990;2022-10-16T14:51:26;22.90;99.90
3330;DHT22;1677;49.576;10.990;2022-10-16T14:53:52;22.90;99.90
3330;DHT22;1677;49.576;10.990;2022-10-16T14:56:23;23.10;99.90
3330;DHT22;1677;49.576;10.990;2022-10-16T14:58:52;22.90;99.90
3330;DHT22;1677;49.576;10.990;2022-10-16T15:01:19;22.80;99.90
3330;DHT22;1677;49.576;10.990;2022-10-16T15:03:45;22.60;99.90
3330;DHT22;1677;49.576;10.990;2022-10-16T15:06:12;22.30;99.90
3330;DHT22;1677;49.576;10.990;2022-10-16T15:08:38;22.20;99.90
3330;DHT22;1677;49.576;10.990;2022-10-16T15:11:04;22.00;99.90
3330;DHT22;1677;49.576;10.990;2022-10-16T15:13:30;21.80;99.90
3330;DHT22;1677;49.576;10.990;2022-10-16T15:15:55;21.70;99.90
3330;DHT22;1677;49.576;10.990;2022-10-16T15:18:21;21.50;99.90
3330;DHT22;1677;49.576;10.990;2022-10-16T15:20:49;21.30;99.90
3330;DHT22;1677;49.576;10.990;2022-10-16T15:23:18;21.30;99.90
3330;DHT22;1677;49.576;10.990;2022-10-16T15:25:45;21.10;99.90
3330;DHT22;1677;49.576;10.990;2022-10-16T15:28:11;21.00;99.90
3330;DHT22;1677;49.576;10.990;2022-10-16T15:30:38;20.90;99.90
3330;DHT22;1677;49.576;10.990;2022-10-16T15:33:08;20.80;99.90
3330;DHT22;1677;49.576;10.990;2022-10-16T15:35:35;20.90;99.90
3330;DHT22;1677;49.576;10.990;2022-10-16T15:38:00;21.20;99.90
3330;DHT22;1677;49.576;10.990;2022-10-16T15:40:26;21.50;99.90
3330;DHT22;1677;49.576;10.990;2022-10-16T15:42:51;21.80;99.90
3330;DHT22;1677;49.576;10.990;2022-10-16T15:45:17;22.10;99.90
3330;DHT22;1677;49.576;10.990;2022-10-16T15:47:44;22.20;99.90
3330;DHT22;1677;49.576;10.990;2022-10-16T15:50:14;22.10;99.90
3330;DHT22;1677;49.576;10.990;2022-10-16T15:52:40;22.00;99.90
3330;DHT22;1677;49.576;10.990;2022-10-16T15:55:11;21.70;99.90
3330;DHT22;1677;49.576;10.990;2022-10-16T15:57:39;21.50;99.90
3330;DHT22;1677;49.576;10.990;2022-10-16T16:00:13;21.30;99.90
3330;DHT22;1677;49.576;10.990;2022-10-16T16:02:42;21.00;99.90
3330;DHT22;1677;49.576;10.990;2022-10-16T16:05:09;20.80;99.90
3330;DHT22;1677;49.576;10.990;2022-10-16T16:07:35;20.60;99.90
3330;DHT22;1677;49.576;10.990;2022-10-16T16:10:02;20.50;99.90
3330;DHT22;1677;49.576;10.990;2022-10-16T16:12:28;20.30;99.90
3330;DHT22;1677;49.576;10.990;2022-10-16T16:14:54;20.20;99.90
3330;DHT22;1677;49.576;10.990;2022-10-16T16:17:19;20.10;99.90
3330;DHT22;1677;49.576;10.990;2022-10-16T16:19:45;19.90;99.90
3330;DHT22;1677;49.576;10.990;2022-10-16T16:22:11;19.90;99.90
3330;DHT22;1677;49.576;10.990;2022-10-16T16:24:37;19.80;99.90
3330;DHT22;1677;49.576;10.990;2022-10-16T16:27:03;19.70;99.90
3330;DHT22;1677;49.576;10.990;2022-10-16T16:29:28;19.60;99.90
3330;DHT22;1677;49.576;10.990;2022-10-16T16:31:54;19.80;99.90
3330;DHT22;1677;49.576;10.990;2022-10-16T16:34:24;20.10;99.90
3330;DHT22;1677;49.576;10.990;2022-10-16T16:36:50;20.50;99.90
3330;DHT22;1677;49.576;10.990;2022-10-16T16:39:16;20.60;99.90
3330;DHT22;1677;49.576;10.990;2022-10-16T16:41:42;20.80;99.90
3330;DHT22;1677;49.576;10.990;2022-10-16T16:44:09;20.80;99.90
3330;DHT22;1677;49.576;10.990;2022-10-16T16:46:36;20.90;99.90
3330;DHT22;1677;49.576;10.990;2022-10-16T16:49:02;20.80;99.90
3330;DHT22;1677;49.576;10.990;2022-10-16T16:51:28;20.70;99.90
3330;DHT22;1677;49.576;10.990;2022-10-16T16:53:54;20.50;99.90
3330;DHT22;1677;49.576;10.990;2022-10-16T16:56:21;20.30;99.90
3330;DHT22;1677;49.576;10.990;2022-10-16T16:58:49;20.10;99.90
3330;DHT22;1677;49.576;10.990;2022-10-16T17:01:15;20.00;99.90
3330;DHT22;1677;49.576;10.990;2022-10-16T17:03:43;20.00;99.90
3330;DHT22;1677;49.576;10.990;2022-10-16T17:06:13;19.80;99.90
3330;DHT22;1677;49.576;10.990;2022-10-16T17:08:39;19.70;99.90
3330;DHT22;1677;49.576;10.990;2022-10-16T17:11:06;19.70;99.90
3330;DHT22;1677;49.576;10.990;2022-10-16T17:13:34;19.60;99.90
3330;DHT22;1677;49.576;10.990;2022-10-16T17:16:04;19.60;99.90
3330;DHT22;1677;49.576;10.990;2022-10-16T17:18:30;19.50;99.90
3330;DHT22;1677;49.576;10.990;2022-10-16T17:20:59;19.60;99.90
3330;DHT22;1677;49.576;10.990;2022-10-16T17:23:24;19.60;99.90
3330;DHT22;1677;49.576;10.990;2022-10-16T17:25:50;19.90;99.90
3330;DHT22;1677;49.576;10.990;2022-10-16T17:28:16;20.30;99.90
3330;DHT22;1677;49.576;10.990;2022-10-16T17:30:43;20.70;99.90
3330;DHT22;1677;49.576;10.990;2022-10-16T17:33:09;21.30;99.90
3330;DHT22;1677;49.576;10.990;2022-10-16T17:35:44;21.60;99.90
3330;DHT22;1677;49.576;10.990;2022-10-16T17:38:11;22.30;99.90
3330;DHT22;1677;49.576;10.990;2022-10-16T17:40:38;22.30;99.90
3330;DHT22;1677;49.576;10.990;2022-10-16T17:43:04;22.10;99.90
3330;DHT22;1677;49.576;10.990;2022-10-16T17:45:30;21.90;99.90
3330;DHT22;1677;49.576;10.990;2022-10-16T17:47:58;21.50;99.90
3330;DHT22;1677;49.576;10.990;2022-10-16T17:50:24;21.20;99.90
3330;DHT22;1677;49.576;10.990;2022-10-16T17:52:49;20.90;99.90
3330;DHT22;1677;49.576;10.990;2022-10-16T17:55:15;20.60;99.90
3330;DHT22;1677;49.576;10.990;2022-10-16T17:57:40;20.40;99.90